sensor_id;sensor_type;location;lat;lon;timestamp;pressure;altitude;pressure_sealevel;temperature;humidity
53340;BME280;46212;50.258;19.062;2023-04-26T00:00:16;97966.91;;;7.45;71.74
53340;BME280;46212;50.258;19.062;2023-04-26T00:02:42;97967.94;;;7.38;71.52
53340;BME280;46212;50.258;19.062;2023-04-26T00:05:07;97965.94;;;7.39;70.94
53340;BME280;46212;50.258;19.062;2023-04-26T00:07:33;97968.75;;;7.48;71.02
53340;BME280;46212;50.258;19.062;2023-04-26T00:09:59;97978.72;;;7.55;70.02
53340;BME280;46212;50.258;19.062;2023-04-26T00:12:25;97975.19;;;7.54;70.45
53340;BME280;46212;50.258;19.062;2023-04-26T00:14:51;97986.41;;;7.38;70.42
53340;BME280;46212;50.258;19.062;2023-04-26T00:17:17;97982.28;;;7.42;68.97
53340;BME280;46212;50.258;19.062;2023-04-26T00:19:42;97987.38;;;7.53;67.53
53340;BME280;46212;50.258;19.062;2023-04-26T00:22:07;97984.47;;;7.47;67.35
53340;BME280;46212;50.258;19.062;2023-04-26T00:24:33;97985.75;;;7.34;67.95
53340;BME280;46212;50.258;19.062;2023-04-26T00:26:59;97980.28;;;7.12;67.77
53340;BME280;46212;50.258;19.062;2023-04-26T00:29:25;97975.97;;;7.33;66.97
53340;BME280;46212;50.258;19.062;2023-04-26T00:31:51;97974.91;;;7.30;66.79
53340;BME280;46212;50.258;19.062;2023-04-26T00:34:16;97985.03;;;7.42;66.33
53340;BME280;46212;50.258;19.062;2023-04-26T00:36:42;97978.28;;;7.34;65.95
53340;BME280;46212;50.258;19.062;2023-04-26T00:39:07;97978.72;;;7.33;65.77
53340;BME280;46212;50.258;19.062;2023-04-26T00:41:33;97971.66;;;7.23;65.75
53340;BME280;46212;50.258;19.062;2023-04-26T00:43:59;97974.31;;;7.14;66.60
53340;BME280;46212;50.258;19.062;2023-04-26T00:46:25;97974.34;;;6.92;67.94
53340;BME280;46212;50.258;19.062;2023-04-26T00:48:53;97975.69;;;6.87;68.24
53340;BME280;46212;50.258;19.062;2023-04-26T00:51:19;97977.91;;;7.02;67.95
53340;BME280;46212;50.258;19.062;2023-04-26T00:53:44;97975.88;;;6.93;67.95
53340;BME280;46212;50.258;19.062;2023-04-26T00:56:11;97979.94;;;6.88;68.11
53340;BME280;46212;50.258;19.062;2023-04-26T00:58:37;97986.22;;;6.89;67.41
53340;BME280;46212;50.258;19.062;2023-04-26T01:01:02;97993.28;;;6.77;67.52
53340;BME280;46212;50.258;19.062;2023-04-26T01:03:28;97989.50;;;6.62;67.30
53340;BME280;46212;50.258;19.062;2023-04-26T01:05:54;97986.03;;;6.49;68.13
53340;BME280;46212;50.258;19.062;2023-04-26T01:08:20;98000.19;;;6.48;68.59
53340;BME280;46212;50.258;19.062;2023-04-26T01:10:47;97992.13;;;6.66;67.11
53340;BME280;46212;50.258;19.062;2023-04-26T01:13:13;97994.25;;;6.49;67.50
53340;BME280;46212;50.258;19.062;2023-04-26T01:15:46;97995.63;;;6.66;66.13
53340;BME280;46212;50.258;19.062;2023-04-26T01:18:12;97990.59;;;6.65;65.32
53340;BME280;46212;50.258;19.062;2023-04-26T01:20:40;97996.78;;;6.56;65.79
53340;BME280;46212;50.258;19.062;2023-04-26T01:23:08;97992.84;;;6.45;64.92
53340;BME280;46212;50.258;19.062;2023-04-26T01:25:33;98001.63;;;6.39;64.42
53340;BME280;46212;50.258;19.062;2023-04-26T01:27:59;98001.19;;;6.28;64.54
53340;BME280;46212;50.258;19.062;2023-04-26T01:30:24;98007.69;;;6.22;63.72
53340;BME280;46212;50.258;19.062;2023-04-26T01:32:50;98015.28;;;6.18;63.73
53340;BME280;46212;50.258;19.062;2023-04-26T01:35:16;98006.94;;;6.09;63.75
53340;BME280;46212;50.258;19.062;2023-04-26T01:37:42;98013.53;;;5.99;64.03
53340;BME280;46212;50.258;19.062;2023-04-26T01:40:08;98009.16;;;5.88;63.56
53340;BME280;46212;50.258;19.062;2023-04-26T01:42:34;98020.41;;;5.78;64.10
53340;BME280;46212;50.258;19.062;2023-04-26T01:44:59;98022.03;;;5.75;64.07
53340;BME280;46212;50.258;19.062;2023-04-26T01:47:25;98018.63;;;5.71;64.23
53340;BME280;46212;50.258;19.062;2023-04-26T01:49:51;98015.66;;;5.53;64.73
53340;BME280;46212;50.258;19.062;2023-04-26T01:52:16;98017.53;;;5.69;64.35
53340;BME280;46212;50.258;19.062;2023-04-26T01:54:42;98027.50;;;5.63;64.73
53340;BME280;46212;50.258;19.062;2023-04-26T01:57:08;98026.06;;;5.71;64.76
53340;BME280;46212;50.258;19.062;2023-04-26T01:59:33;98034.72;;;5.57;65.08
53340;BME280;46212;50.258;19.062;2023-04-26T02:01:59;98030.34;;;5.59;65.13
53340;BME280;46212;50.258;19.062;2023-04-26T02:04:25;98026.78;;;5.33;65.87
53340;BME280;46212;50.258;19.062;2023-04-26T02:06:50;98028.88;;;5.29;66.13
53340;BME280;46212;50.258;19.062;2023-04-26T02:09:16;98020.78;;;5.26;66.11
53340;BME280;46212;50.258;19.062;2023-04-26T02:11:42;98020.50;;;5.20;66.33
53340;BME280;46212;50.258;19.062;2023-04-26T02:14:08;98024.75;;;5.09;66.83
53340;BME280;46212;50.258;19.062;2023-04-26T02:16:33;98024.88;;;5.18;66.50
53340;BME280;46212;50.258;19.062;2023-04-26T02:18:58;98031.75;;;5.39;65.71
53340;BME280;46212;50.258;19.062;2023-04-26T02:21:24;98032.50;;;5.39;65.65
53340;BME280;46212;50.258;19.062;2023-04-26T02:23:50;98033.97;;;5.15;66.08
53340;BME280;46212;50.258;19.062;2023-04-26T02:26:16;98020.53;;;5.33;66.12
53340;BME280;46212;50.258;19.062;2023-04-26T02:28:41;98023.94;;;5.24;65.87
53340;BME280;46212;50.258;19.062;2023-04-26T02:31:07;98030.31;;;5.05;66.45
53340;BME280;46212;50.258;19.062;2023-04-26T02:33:32;98028.34;;;5.06;66.38
53340;BME280;46212;50.258;19.062;2023-04-26T02:35:58;98027.44;;;4.96;66.75
53340;BME280;46212;50.258;19.062;2023-04-26T02:38:24;98029.09;;;4.94;67.00
53340;BME280;46212;50.258;19.062;2023-04-26T02:40:59;98030.91;;;4.84;67.54
53340;BME280;46212;50.258;19.062;2023-04-26T02:43:25;98022.88;;;4.77;67.63
53340;BME280;46212;50.258;19.062;2023-04-26T02:45:50;98025.00;;;4.86;67.59
53340;BME280;46212;50.258;19.062;2023-04-26T02:48:16;98026.22;;;4.85;67.75
53340;BME280;46212;50.258;19.062;2023-04-26T02:50:41;98038.19;;;4.74;68.20
53340;BME280;46212;50.258;19.062;2023-04-26T02:53:07;98039.25;;;4.48;69.05
53340;BME280;46212;50.258;19.062;2023-04-26T02:55:32;98037.88;;;4.56;69.37
53340;BME280;46212;50.258;19.062;2023-04-26T02:57:58;98037.97;;;4.53;69.57
53340;BME280;46212;50.258;19.062;2023-04-26T03:00:23;98035.13;;;4.72;69.45
53340;BME280;46212;50.258;19.062;2023-04-26T03:02:49;98038.84;;;4.50;70.13
53340;BME280;46212;50.258;19.062;2023-04-26T03:05:15;98046.94;;;4.53;70.60
53340;BME280;46212;50.258;19.062;2023-04-26T03:07:40;98043.38;;;4.40;70.92
53340;BME280;46212;50.258;19.062;2023-04-26T03:10:06;98035.16;;;4.56;71.04
53340;BME280;46212;50.258;19.062;2023-04-26T03:12:32;98045.47;;;4.65;70.51
53340;BME280;46212;50.258;19.062;2023-04-26T03:14:58;98043.75;;;4.71;70.39
53340;BME280;46212;50.258;19.062;2023-04-26T03:17:23;98047.53;;;4.61;70.66
53340;BME280;46212;50.258;19.062;2023-04-26T03:19:48;98057.88;;;4.53;71.80
53340;BME280;46212;50.258;19.062;2023-04-26T03:22:14;98055.41;;;4.43;72.09
53340;BME280;46212;50.258;19.062;2023-04-26T03:24:44;98059.94;;;4.49;72.30
53340;BME280;46212;50.258;19.062;2023-04-26T03:27:10;98059.66;;;4.60;72.14
53340;BME280;46212;50.258;19.062;2023-04-26T03:29:36;98068.47;;;4.51;72.69
53340;BME280;46212;50.258;19.062;2023-04-26T03:32:01;98062.31;;;4.47;73.12
53340;BME280;46212;50.258;19.062;2023-04-26T03:34:27;98060.19;;;4.39;73.23
53340;BME280;46212;50.258;19.062;2023-04-26T03:36:52;98070.50;;;4.47;73.40
53340;BME280;46212;50.258;19.062;2023-04-26T03:39:18;98075.16;;;4.50;73.04
53340;BME280;46212;50.258;19.062;2023-04-26T03:41:43;98079.69;;;4.41;73.14
53340;BME280;46212;50.258;19.062;2023-04-26T03:44:08;98074.78;;;4.32;73.43
53340;BME280;46212;50.258;19.062;2023-04-26T03:46:34;98080.69;;;4.14;74.28
53340;BME280;46212;50.258;19.062;2023-04-26T03:48:59;98078.91;;;4.24;74.23
53340;BME280;46212;50.258;19.062;2023-04-26T03:51:25;98076.34;;;4.33;73.46
53340;BME280;46212;50.258;19.062;2023-04-26T03:53:52;98087.00;;;4.27;73.71
53340;BME280;46212;50.258;19.062;2023-04-26T03:56:17;98080.94;;;4.20;73.89
53340;BME280;46212;50.258;19.062;2023-04-26T03:58:43;98086.72;;;4.22;73.87
53340;BME280;46212;50.258;19.062;2023-04-26T04:01:08;98094.94;;;4.38;73.18
53340;BME280;46212;50.258;19.062;2023-04-26T04:03:34;98100.41;;;4.22;73.71
53340;BME280;46212;50.258;19.062;2023-04-26T04:05:59;98091.72;;;4.27;73.67
53340;BME280;46212;50.258;19.062;2023-04-26T04:08:24;98096.06;;;4.24;73.74
53340;BME280;46212;50.258;19.062;2023-04-26T04:10:50;98100.31;;;4.25;73.46
53340;BME280;46212;50.258;19.062;2023-04-26T04:13:15;98105.81;;;4.42;72.51
53340;BME280;46212;50.258;19.062;2023-04-26T04:15:41;98103.16;;;4.38;72.95
53340;BME280;46212;50.258;19.062;2023-04-26T04:18:06;98106.06;;;4.31;73.08
53340;BME280;46212;50.258;19.062;2023-04-26T04:20:31;98110.50;;;4.41;72.43
53340;BME280;46212;50.258;19.062;2023-04-26T04:22:57;98115.56;;;4.43;73.35
53340;BME280;46212;50.258;19.062;2023-04-26T04:25:28;98118.03;;;4.53;73.54
53340;BME280;46212;50.258;19.062;2023-04-26T04:27:54;98117.28;;;4.53;72.10
53340;BME280;46212;50.258;19.062;2023-04-26T04:30:19;98120.16;;;4.46;72.25
53340;BME280;46212;50.258;19.062;2023-04-26T04:32:45;98122.47;;;4.47;72.53
53340;BME280;46212;50.258;19.062;2023-04-26T04:35:11;98130.84;;;4.40;72.81
53340;BME280;46212;50.258;19.062;2023-04-26T04:37:37;98137.50;;;4.55;71.99
53340;BME280;46212;50.258;19.062;2023-04-26T04:40:03;98140.50;;;4.77;71.08
53340;BME280;46212;50.258;19.062;2023-04-26T04:42:29;98133.41;;;4.79;71.16
53340;BME280;46212;50.258;19.062;2023-04-26T04:44:54;98142.53;;;5.05;69.88
53340;BME280;46212;50.258;19.062;2023-04-26T04:47:21;98144.88;;;4.91;69.72
53340;BME280;46212;50.258;19.062;2023-04-26T04:49:46;98134.78;;;4.88;69.68
53340;BME280;46212;50.258;19.062;2023-04-26T04:52:11;98147.53;;;4.78;70.08
53340;BME280;46212;50.258;19.062;2023-04-26T04:54:37;98149.41;;;4.81;71.34
53340;BME280;46212;50.258;19.062;2023-04-26T04:57:02;98139.09;;;5.01;69.67
53340;BME280;46212;50.258;19.062;2023-04-26T04:59:28;98138.16;;;5.08;69.04
53340;BME280;46212;50.258;19.062;2023-04-26T05:01:53;98141.25;;;5.10;68.48
53340;BME280;46212;50.258;19.062;2023-04-26T05:04:19;98138.63;;;4.90;69.22
53340;BME280;46212;50.258;19.062;2023-04-26T05:06:45;98135.78;;;5.10;68.76
53340;BME280;46212;50.258;19.062;2023-04-26T05:09:10;98142.94;;;5.20;68.21
53340;BME280;46212;50.258;19.062;2023-04-26T05:11:36;98148.50;;;5.16;68.14
53340;BME280;46212;50.258;19.062;2023-04-26T05:14:01;98155.78;;;5.07;68.29
53340;BME280;46212;50.258;19.062;2023-04-26T05:16:27;98146.13;;;5.02;68.80
53340;BME280;46212;50.258;19.062;2023-04-26T05:18:52;98150.00;;;5.33;67.33
53340;BME280;46212;50.258;19.062;2023-04-26T05:21:18;98167.66;;;5.32;67.11
53340;BME280;46212;50.258;19.062;2023-04-26T05:23:43;98171.25;;;5.29;67.72
53340;BME280;46212;50.258;19.062;2023-04-26T05:26:14;98164.03;;;5.35;66.48
53340;BME280;46212;50.258;19.062;2023-04-26T05:28:39;98166.88;;;5.32;67.26
53340;BME280;46212;50.258;19.062;2023-04-26T05:31:05;98168.16;;;5.27;67.54
53340;BME280;46212;50.258;19.062;2023-04-26T05:33:31;98171.75;;;5.24;67.59
53340;BME280;46212;50.258;19.062;2023-04-26T05:35:56;98168.75;;;5.35;66.71
53340;BME280;46212;50.258;19.062;2023-04-26T05:38:23;98166.84;;;5.48;66.31
53340;BME280;46212;50.258;19.062;2023-04-26T05:40:48;98170.00;;;5.47;65.94
53340;BME280;46212;50.258;19.062;2023-04-26T05:43:14;98168.91;;;5.44;66.38
53340;BME280;46212;50.258;19.062;2023-04-26T05:45:39;98169.16;;;5.33;66.74
53340;BME280;46212;50.258;19.062;2023-04-26T05:48:05;98174.28;;;5.48;66.75
53340;BME280;46212;50.258;19.062;2023-04-26T05:50:31;98175.19;;;5.57;65.74
53340;BME280;46212;50.258;19.062;2023-04-26T05:52:56;98167.06;;;5.54;65.22
53340;BME280;46212;50.258;19.062;2023-04-26T05:55:22;98170.13;;;5.56;65.66
53340;BME280;46212;50.258;19.062;2023-04-26T05:57:47;98178.03;;;5.54;66.10
53340;BME280;46212;50.258;19.062;2023-04-26T06:00:13;98180.91;;;5.63;64.73
53340;BME280;46212;50.258;19.062;2023-04-26T06:02:39;98180.13;;;5.62;63.66
53340;BME280;46212;50.258;19.062;2023-04-26T06:05:05;98173.22;;;5.58;64.20
53340;BME280;46212;50.258;19.062;2023-04-26T06:07:31;98181.44;;;5.58;64.44
53340;BME280;46212;50.258;19.062;2023-04-26T06:09:57;98180.56;;;5.61;64.19
53340;BME280;46212;50.258;19.062;2023-04-26T06:12:22;98182.66;;;5.85;63.50
53340;BME280;46212;50.258;19.062;2023-04-26T06:14:47;98190.69;;;5.93;62.40
53340;BME280;46212;50.258;19.062;2023-04-26T06:17:13;98180.81;;;5.95;62.27
53340;BME280;46212;50.258;19.062;2023-04-26T06:19:38;98174.88;;;5.97;61.25
53340;BME280;46212;50.258;19.062;2023-04-26T06:22:04;98191.16;;;6.16;61.22
53340;BME280;46212;50.258;19.062;2023-04-26T06:24:29;98190.84;;;6.27;59.59
53340;BME280;46212;50.258;19.062;2023-04-26T06:26:55;98191.19;;;6.29;59.21
53340;BME280;46212;50.258;19.062;2023-04-26T06:29:20;98188.13;;;6.27;59.09
53340;BME280;46212;50.258;19.062;2023-04-26T06:31:46;98190.66;;;6.34;59.01
53340;BME280;46212;50.258;19.062;2023-04-26T06:34:11;98198.13;;;6.33;58.98
53340;BME280;46212;50.258;19.062;2023-04-26T06:36:36;98192.28;;;6.31;58.75
53340;BME280;46212;50.258;19.062;2023-04-26T06:39:02;98187.75;;;6.25;59.58
53340;BME280;46212;50.258;19.062;2023-04-26T06:41:28;98195.78;;;6.32;59.60
53340;BME280;46212;50.258;19.062;2023-04-26T06:43:53;98191.88;;;6.46;59.98
53340;BME280;46212;50.258;19.062;2023-04-26T06:46:19;98196.69;;;6.67;58.41
53340;BME280;46212;50.258;19.062;2023-04-26T06:48:45;98192.53;;;6.75;58.10
53340;BME280;46212;50.258;19.062;2023-04-26T06:51:10;98187.25;;;6.93;58.07
53340;BME280;46212;50.258;19.062;2023-04-26T06:53:36;98188.84;;;7.16;57.53
53340;BME280;46212;50.258;19.062;2023-04-26T06:56:02;98192.53;;;7.34;57.18
53340;BME280;46212;50.258;19.062;2023-04-26T06:58:27;98189.44;;;7.45;56.51
53340;BME280;46212;50.258;19.062;2023-04-26T07:00:53;98196.81;;;7.35;56.12
53340;BME280;46212;50.258;19.062;2023-04-26T07:03:18;98189.16;;;7.52;56.38
53340;BME280;46212;50.258;19.062;2023-04-26T07:05:44;98188.56;;;7.70;56.82
53340;BME280;46212;50.258;19.062;2023-04-26T07:08:09;98188.25;;;7.89;56.01
53340;BME280;46212;50.258;19.062;2023-04-26T07:10:35;98195.97;;;7.82;56.17
53340;BME280;46212;50.258;19.062;2023-04-26T07:13:00;98195.34;;;7.78;56.32
53340;BME280;46212;50.258;19.062;2023-04-26T07:15:26;98187.91;;;7.87;56.33
53340;BME280;46212;50.258;19.062;2023-04-26T07:17:52;98197.06;;;7.84;56.49
53340;BME280;46212;50.258;19.062;2023-04-26T07:20:17;98199.94;;;7.81;56.48
53340;BME280;46212;50.258;19.062;2023-04-26T07:22:45;98200.47;;;7.88;56.32
53340;BME280;46212;50.258;19.062;2023-04-26T07:25:11;98199.03;;;8.06;56.69
53340;BME280;46212;50.258;19.062;2023-04-26T07:27:36;98197.88;;;8.16;56.45
53340;BME280;46212;50.258;19.062;2023-04-26T07:30:02;98215.03;;;8.20;55.15
53340;BME280;46212;50.258;19.062;2023-04-26T07:32:29;98207.16;;;8.09;54.91
53340;BME280;46212;50.258;19.062;2023-04-26T07:34:55;98211.88;;;8.09;55.07
53340;BME280;46212;50.258;19.062;2023-04-26T07:37:20;98206.38;;;8.09;54.12
53340;BME280;46212;50.258;19.062;2023-04-26T07:39:46;98211.88;;;8.09;54.49
53340;BME280;46212;50.258;19.062;2023-04-26T07:42:11;98221.44;;;8.17;54.00
53340;BME280;46212;50.258;19.062;2023-04-26T07:44:37;98216.75;;;8.26;54.08
53340;BME280;46212;50.258;19.062;2023-04-26T07:47:02;98224.38;;;8.44;54.69
53340;BME280;46212;50.258;19.062;2023-04-26T07:49:27;98211.00;;;8.64;53.41
53340;BME280;46212;50.258;19.062;2023-04-26T07:51:53;98231.59;;;8.50;51.86
53340;BME280;46212;50.258;19.062;2023-04-26T07:54:20;98220.34;;;8.36;52.79
53340;BME280;46212;50.258;19.062;2023-04-26T07:56:45;98225.50;;;8.56;52.15
53340;BME280;46212;50.258;19.062;2023-04-26T07:59:11;98220.53;;;8.41;52.94
53340;BME280;46212;50.258;19.062;2023-04-26T08:01:36;98225.84;;;8.36;52.97
53340;BME280;46212;50.258;19.062;2023-04-26T08:04:03;98231.34;;;8.36;53.64
53340;BME280;46212;50.258;19.062;2023-04-26T08:06:29;98223.94;;;8.24;52.76
53340;BME280;46212;50.258;19.062;2023-04-26T08:08:55;98234.66;;;8.09;53.70
53340;BME280;46212;50.258;19.062;2023-04-26T08:11:20;98235.19;;;8.17;53.98
53340;BME280;46212;50.258;19.062;2023-04-26T08:13:46;98230.78;;;8.41;53.95
53340;BME280;46212;50.258;19.062;2023-04-26T08:16:12;98239.22;;;8.77;53.14
53340;BME280;46212;50.258;19.062;2023-04-26T08:18:37;98237.09;;;8.81;52.86
53340;BME280;46212;50.258;19.062;2023-04-26T08:21:03;98237.13;;;8.90;52.77
53340;BME280;46212;50.258;19.062;2023-04-26T08:23:32;98252.16;;;8.98;52.01
53340;BME280;46212;50.258;19.062;2023-04-26T08:25:58;98237.16;;;8.99;51.02
53340;BME280;46212;50.258;19.062;2023-04-26T08:28:24;98234.66;;;8.83;50.04
53340;BME280;46212;50.258;19.062;2023-04-26T08:30:49;98239.69;;;8.85;50.04
53340;BME280;46212;50.258;19.062;2023-04-26T08:33:16;98239.56;;;8.88;49.40
53340;BME280;46212;50.258;19.062;2023-04-26T08:35:42;98232.22;;;8.94;50.10
53340;BME280;46212;50.258;19.062;2023-04-26T08:38:07;98239.31;;;9.04;49.57
53340;BME280;46212;50.258;19.062;2023-04-26T08:40:32;98240.44;;;9.16;47.47
53340;BME280;46212;50.258;19.062;2023-04-26T08:42:58;98222.25;;;9.37;46.90
53340;BME280;46212;50.258;19.062;2023-04-26T08:45:24;98234.84;;;9.56;46.74
53340;BME280;46212;50.258;19.062;2023-04-26T08:47:52;98232.22;;;9.52;45.53
53340;BME280;46212;50.258;19.062;2023-04-26T08:50:21;98234.97;;;9.43;45.98
53340;BME280;46212;50.258;19.062;2023-04-26T08:52:49;98232.50;;;9.36;46.93
53340;BME280;46212;50.258;19.062;2023-04-26T08:55:17;98234.84;;;9.47;44.91
53340;BME280;46212;50.258;19.062;2023-04-26T08:57:45;98233.00;;;9.53;43.85
53340;BME280;46212;50.258;19.062;2023-04-26T09:00:11;98231.94;;;9.59;42.83
53340;BME280;46212;50.258;19.062;2023-04-26T09:02:39;98230.38;;;9.40;42.71
53340;BME280;46212;50.258;19.062;2023-04-26T09:05:06;98243.28;;;9.61;42.93
53340;BME280;46212;50.258;19.062;2023-04-26T09:07:34;98258.72;;;9.41;43.84
53340;BME280;46212;50.258;19.062;2023-04-26T09:10:03;98241.03;;;9.11;45.40
53340;BME280;46212;50.258;19.062;2023-04-26T09:12:30;98253.56;;;9.03;46.25
53340;BME280;46212;50.258;19.062;2023-04-26T09:14:55;98256.59;;;8.96;45.45
53340;BME280;46212;50.258;19.062;2023-04-26T09:17:34;98253.88;;;9.14;44.22
53340;BME280;46212;50.258;19.062;2023-04-26T09:20:26;98249.03;;;9.27;45.11
53340;BME280;46212;50.258;19.062;2023-04-26T09:22:53;98231.16;;;9.50;44.75
53340;BME280;46212;50.258;19.062;2023-04-26T09:25:29;98244.66;;;9.57;43.19
53340;BME280;46212;50.258;19.062;2023-04-26T09:27:55;98251.22;;;9.41;43.70
53340;BME280;46212;50.258;19.062;2023-04-26T09:30:21;98264.00;;;9.26;43.72
53340;BME280;46212;50.258;19.062;2023-04-26T09:35:24;98248.97;;;9.09;42.74
53340;BME280;46212;50.258;19.062;2023-04-26T09:40:30;98232.19;;;9.16;44.41
53340;BME280;46212;50.258;19.062;2023-04-26T09:42:58;98235.72;;;9.26;43.05
53340;BME280;46212;50.258;19.062;2023-04-26T09:45:26;98246.75;;;9.26;42.36
53340;BME280;46212;50.258;19.062;2023-04-26T09:47:52;98255.75;;;9.26;43.21
53340;BME280;46212;50.258;19.062;2023-04-26T09:50:30;98255.22;;;9.00;42.29
53340;BME280;46212;50.258;19.062;2023-04-26T09:52:56;98249.41;;;9.07;41.97
53340;BME280;46212;50.258;19.062;2023-04-26T09:55:26;98255.91;;;9.23;41.13
53340;BME280;46212;50.258;19.062;2023-04-26T09:57:56;98244.59;;;9.39;40.45
53340;BME280;46212;50.258;19.062;2023-04-26T10:00:23;98248.91;;;9.49;40.26
53340;BME280;46212;50.258;19.062;2023-04-26T10:02:51;98227.63;;;9.49;40.64
53340;BME280;46212;50.258;19.062;2023-04-26T10:05:16;98239.16;;;9.57;40.87
53340;BME280;46212;50.258;19.062;2023-04-26T10:07:43;98236.66;;;9.41;41.18
53340;BME280;46212;50.258;19.062;2023-04-26T10:10:09;98231.31;;;8.97;42.42
53340;BME280;46212;50.258;19.062;2023-04-26T10:12:36;98257.94;;;8.91;42.27
53340;BME280;46212;50.258;19.062;2023-04-26T10:15:02;98237.81;;;9.13;43.14
53340;BME280;46212;50.258;19.062;2023-04-26T10:17:28;98238.81;;;9.46;43.24
53340;BME280;46212;50.258;19.062;2023-04-26T10:19:56;98235.91;;;9.58;42.36
53340;BME280;46212;50.258;19.062;2023-04-26T10:22:24;98242.81;;;9.63;42.13
53340;BME280;46212;50.258;19.062;2023-04-26T10:24:53;98244.97;;;9.59;40.93
53340;BME280;46212;50.258;19.062;2023-04-26T10:30:11;98241.13;;;9.56;40.71
53340;BME280;46212;50.258;19.062;2023-04-26T10:35:31;98244.66;;;9.75;39.67
53340;BME280;46212;50.258;19.062;2023-04-26T10:40:33;98246.28;;;9.27;41.22
53340;BME280;46212;50.258;19.062;2023-04-26T10:43:26;98256.53;;;9.27;41.52
53340;BME280;46212;50.258;19.062;2023-04-26T10:45:51;98254.63;;;9.05;41.60
53340;BME280;46212;50.258;19.062;2023-04-26T10:48:19;98249.38;;;8.89;41.87
53340;BME280;46212;50.258;19.062;2023-04-26T10:51:15;98245.66;;;8.83;42.71
53340;BME280;46212;50.258;19.062;2023-04-26T11:01:32;98260.66;;;8.08;47.48
53340;BME280;46212;50.258;19.062;2023-04-26T11:06:24;98270.22;;;8.03;46.64
53340;BME280;46212;50.258;19.062;2023-04-26T11:08:51;98259.66;;;8.36;45.04
53340;BME280;46212;50.258;19.062;2023-04-26T11:11:17;98262.94;;;8.53;44.38
53340;BME280;46212;50.258;19.062;2023-04-26T11:13:46;98260.75;;;8.70;44.07
53340;BME280;46212;50.258;19.062;2023-04-26T11:16:16;98253.47;;;8.85;42.05
53340;BME280;46212;50.258;19.062;2023-04-26T11:18:46;98266.97;;;9.32;43.05
53340;BME280;46212;50.258;19.062;2023-04-26T11:21:12;98255.53;;;9.60;42.00
53340;BME280;46212;50.258;19.062;2023-04-26T11:23:41;98258.78;;;9.95;38.25
53340;BME280;46212;50.258;19.062;2023-04-26T11:26:07;98259.97;;;10.12;37.39
53340;BME280;46212;50.258;19.062;2023-04-26T11:28:38;98245.91;;;9.92;36.53
53340;BME280;46212;50.258;19.062;2023-04-26T11:31:05;98250.31;;;9.90;36.62
53340;BME280;46212;50.258;19.062;2023-04-26T11:33:31;98260.59;;;9.80;37.45
53340;BME280;46212;50.258;19.062;2023-04-26T11:35:58;98253.13;;;10.26;37.29
53340;BME280;46212;50.258;19.062;2023-04-26T11:38:25;98253.03;;;10.72;36.74
53340;BME280;46212;50.258;19.062;2023-04-26T11:40:54;98259.56;;;11.25;36.29
53340;BME280;46212;50.258;19.062;2023-04-26T11:43:20;98258.00;;;11.57;36.44
53340;BME280;46212;50.258;19.062;2023-04-26T11:45:45;98265.56;;;11.47;36.73
53340;BME280;46212;50.258;19.062;2023-04-26T11:48:11;98258.28;;;11.02;38.55
53340;BME280;46212;50.258;19.062;2023-04-26T11:50:38;98260.09;;;10.63;40.63
53340;BME280;46212;50.258;19.062;2023-04-26T11:53:05;98259.97;;;10.58;40.17
53340;BME280;46212;50.258;19.062;2023-04-26T11:55:32;98277.78;;;10.39;40.29
53340;BME280;46212;50.258;19.062;2023-04-26T11:58:12;98282.06;;;10.49;39.48
53340;BME280;46212;50.258;19.062;2023-04-26T12:00:57;98285.56;;;10.58;39.48
53340;BME280;46212;50.258;19.062;2023-04-26T12:03:27;98273.44;;;10.56;38.70
53340;BME280;46212;50.258;19.062;2023-04-26T12:05:53;98281.56;;;10.69;38.18
53340;BME280;46212;50.258;19.062;2023-04-26T12:08:23;98277.16;;;10.95;38.04
53340;BME280;46212;50.258;19.062;2023-04-26T12:10:49;98275.66;;;11.27;36.43
53340;BME280;46212;50.258;19.062;2023-04-26T12:13:15;98276.97;;;11.64;34.98
53340;BME280;46212;50.258;19.062;2023-04-26T12:15:40;98263.59;;;11.48;32.95
53340;BME280;46212;50.258;19.062;2023-04-26T12:18:07;98272.75;;;11.54;34.47
53340;BME280;46212;50.258;19.062;2023-04-26T12:20:34;98271.53;;;11.79;33.87
53340;BME280;46212;50.258;19.062;2023-04-26T12:23:01;98272.38;;;12.08;32.35
53340;BME280;46212;50.258;19.062;2023-04-26T12:25:27;98263.53;;;12.19;31.08
53340;BME280;46212;50.258;19.062;2023-04-26T12:27:53;98257.72;;;12.17;30.79
53340;BME280;46212;50.258;19.062;2023-04-26T12:30:18;98249.63;;;12.72;31.32
53340;BME280;46212;50.258;19.062;2023-04-26T12:32:44;98263.16;;;13.14;30.99
53340;BME280;46212;50.258;19.062;2023-04-26T12:35:10;98270.16;;;13.09;31.15
53340;BME280;46212;50.258;19.062;2023-04-26T12:37:35;98269.41;;;12.79;31.96
53340;BME280;46212;50.258;19.062;2023-04-26T12:40:01;98269.56;;;13.05;31.38
53340;BME280;46212;50.258;19.062;2023-04-26T12:42:26;98276.72;;;14.42;30.70
53340;BME280;46212;50.258;19.062;2023-04-26T12:44:52;98283.03;;;13.27;30.90
53340;BME280;46212;50.258;19.062;2023-04-26T12:47:17;98282.25;;;13.41;31.71
53340;BME280;46212;50.258;19.062;2023-04-26T12:49:42;98295.13;;;13.99;32.25
53340;BME280;46212;50.258;19.062;2023-04-26T12:52:08;98295.59;;;15.21;31.04
53340;BME280;46212;50.258;19.062;2023-04-26T12:54:33;98298.13;;;16.74;29.21
53340;BME280;46212;50.258;19.062;2023-04-26T12:56:59;98281.69;;;20.06;25.64
53340;BME280;46212;50.258;19.062;2023-04-26T12:59:24;98292.38;;;21.78;23.29
53340;BME280;46212;50.258;19.062;2023-04-26T13:01:50;98279.63;;;22.97;20.90
53340;BME280;46212;50.258;19.062;2023-04-26T13:04:15;98283.72;;;23.79;20.32
53340;BME280;46212;50.258;19.062;2023-04-26T13:06:41;98273.06;;;24.21;19.05
53340;BME280;46212;50.258;19.062;2023-04-26T13:09:06;98283.94;;;23.81;19.63
53340;BME280;46212;50.258;19.062;2023-04-26T13:11:32;98276.84;;;24.23;19.61
53340;BME280;46212;50.258;19.062;2023-04-26T13:13:58;98279.44;;;23.16;19.85
53340;BME280;46212;50.258;19.062;2023-04-26T13:16:24;98281.97;;;20.46;21.96
53340;BME280;46212;50.258;19.062;2023-04-26T13:18:49;98287.47;;;18.30;23.78